createdAt,value
2022-08-09T00:04:06.221Z,102018.84
2022-08-09T00:09:17.744Z,102015.31
2022-08-09T00:14:30.576Z,102015.34
2022-08-09T00:19:40.391Z,102017.97
2022-08-09T00:24:42.084Z,102010.94
2022-08-09T00:30:25.232Z,102019.72
2022-08-09T00:35:06.589Z,102012.69
2022-08-09T00:40:16.939Z,102017.09
2022-08-09T00:45:20.165Z,102020.53
2022-08-09T00:50:25.709Z,102010.88
2022-08-09T00:56:02.947Z,102009.09
2022-08-09T01:00:54.556Z,102014.34
2022-08-09T01:06:17.752Z,102014.34
2022-08-09T01:11:42.333Z,102020.47
2022-08-09T01:17:01.594Z,102023.09
2022-08-09T01:22:16.418Z,102016.94
2022-08-09T01:27:18.526Z,102032.75
2022-08-09T01:32:39.172Z,102040.63
2022-08-09T01:38:05.883Z,102036.13
2022-08-09T01:43:03.906Z,102037.84
2022-08-09T01:48:06.319Z,102029.94
2022-08-09T01:53:19.800Z,102033.41
2022-08-09T01:58:24.313Z,102030.75
2022-08-09T02:03:26.224Z,102031.63
2022-08-09T02:08:40.511Z,102028.94
2022-08-09T02:13:55.296Z,102030.69
2022-08-09T02:19:09.202Z,102024.56
2022-08-09T02:24:12.354Z,102024.56
2022-08-09T02:29:31.299Z,102028.03
2022-08-09T02:34:41.245Z,102027.91
2022-08-09T02:40:01.513Z,102030.53
2022-08-09T02:45:07.077Z,102037.56
2022-08-09T02:50:13.533Z,102033.22
2022-08-09T02:55:20.237Z,102026.22
2022-08-09T03:00:26.063Z,102030.50
2022-08-09T03:05:28.636Z,102022.56
2022-08-09T03:10:30.371Z,102028.63
2022-08-09T03:15:40.496Z,102028.69
2022-08-09T03:20:53.851Z,102031.22
2022-08-09T03:25:58.582Z,102028.59
2022-08-09T03:31:10.220Z,102037.25
2022-08-09T03:36:27.805Z,102035.44
2022-08-09T03:41:45.844Z,102038.94
2022-08-09T03:46:50.526Z,102038.03
2022-08-09T03:51:56.728Z,102039.81
2022-08-09T03:57:04.565Z,102038.09
2022-08-09T04:02:26.926Z,102031.81
2022-08-09T04:07:47.284Z,102034.41
2022-08-09T04:12:52.280Z,102036.94
2022-08-09T04:17:57.474Z,102043.97
2022-08-09T04:22:59.588Z,102049.09
2022-08-09T04:28:02.631Z,102063.13
2022-08-09T04:33:05.530Z,102068.38
2022-08-09T04:38:09.524Z,102075.31
2022-08-09T04:43:11.195Z,102078.81
2022-08-09T04:48:15.496Z,102079.91
2022-08-09T04:53:17.228Z,102081.03
2022-08-09T04:58:18.941Z,102084.69
2022-08-09T05:03:39.898Z,102084.75
2022-08-09T05:08:44.053Z,102084.97
2022-08-09T05:13:49.703Z,102083.28
2022-08-09T05:18:59.269Z,102086.91
2022-08-09T05:24:04.071Z,102094.81
2022-08-09T05:29:06.622Z,102098.28
2022-08-09T05:34:08.273Z,102092.19
2022-08-09T05:39:28.562Z,102101.03
2022-08-09T05:44:32.905Z,102101.19
2022-08-09T05:50:23.941Z,102102.09
2022-08-09T05:54:58.122Z,102111.00
2022-08-09T06:00:09.023Z,102112.84
2022-08-09T06:05:13.801Z,102119.94
2022-08-09T06:10:15.655Z,102112.97
2022-08-09T06:15:17.671Z,102111.22
2022-08-09T06:20:19.433Z,102120.91
2022-08-09T06:25:21.359Z,102118.31
2022-08-09T06:30:23.160Z,102126.19
2022-08-09T06:35:56.059Z,102128.84
2022-08-09T06:40:46.512Z,102131.50
2022-08-09T06:46:08.100Z,102123.56
2022-08-09T06:51:10.952Z,102128.81
2022-08-09T06:56:13.416Z,102128.81
2022-08-09T07:01:16.344Z,102129.63
2022-08-09T07:06:18.685Z,102123.44
2022-08-09T07:11:23.466Z,102133.97
2022-08-09T07:16:41.231Z,102135.69
2022-08-09T07:21:55.844Z,102135.69
2022-08-09T07:27:01.207Z,102139.13
2022-08-09T07:32:03.551Z,102135.50
2022-08-09T07:37:05.304Z,102140.69
2022-08-09T07:42:17.401Z,102144.88
2022-08-09T07:47:19.468Z,102140.34
2022-08-09T07:52:29.813Z,102136.66
2022-08-09T07:57:36.117Z,102137.41
2022-08-09T08:02:42.257Z,102132.75
2022-08-09T08:08:43.659Z,102147.56
2022-08-09T08:13:06.307Z,102145.66
2022-08-09T08:18:12.198Z,102136.56
2022-08-09T08:23:18.552Z,102136.44
2022-08-09T08:28:32.163Z,102138.06
2022-08-09T08:33:49.589Z,102138.75
2022-08-09T08:38:54.991Z,102133.31
2022-08-09T08:44:02.523Z,102132.22
2022-08-09T08:49:07.122Z,102136.63
2022-08-09T08:54:20.403Z,102139.19
2022-08-09T08:59:22.517Z,102136.28
2022-08-09T09:04:33.177Z,102136.03
2022-08-09T09:10:02.378Z,102130.50
2022-08-09T09:15:07.018Z,102139.09
2022-08-09T09:20:15.249Z,102137.25
2022-08-09T09:26:04.292Z,102143.25
2022-08-09T09:30:57.508Z,102140.19
2022-08-09T09:36:06.239Z,102147.84
2022-08-09T09:41:33.488Z,102148.44
2022-08-09T09:46:51.729Z,102150.47
2022-08-09T09:52:16.564Z,102146.75
2022-08-09T09:58:03.317Z,102153.66
2022-08-09T10:02:52.760Z,102155.47
2022-08-09T10:08:25.951Z,102147.31
2022-08-09T10:13:45.297Z,102140.97
2022-08-09T10:18:54.436Z,102128.31
2022-08-09T10:23:57.878Z,102131.56
2022-08-09T10:29:35.922Z,102121.41
2022-08-09T10:34:33.110Z,102112.88
2022-08-09T10:39:40.888Z,102115.06
2022-08-09T10:45:02.176Z,102113.06
2022-08-09T10:50:57.428Z,102117.19
2022-08-09T10:56:23.984Z,102111.91
2022-08-09T11:03:14.429Z,102113.69
2022-08-09T11:07:01.425Z,102111.13
2022-08-09T11:12:12.146Z,102115.47
2022-08-09T11:17:13.840Z,102107.16
2022-08-09T11:22:21.557Z,102106.41
2022-08-09T11:28:04.100Z,102117.78
2022-08-09T11:33:19.209Z,102113.63
2022-08-09T11:38:32.047Z,102109.53
2022-08-09T11:43:34.844Z,102117.19
2022-08-09T11:48:54.382Z,102109.84
2022-08-09T11:54:13.131Z,102108.69
2022-08-09T11:59:30.414Z,102106.03
2022-08-09T12:04:37.976Z,102096.28
2022-08-09T12:09:39.908Z,102086.31
2022-08-09T12:15:08.299Z,102073.75
2022-08-09T12:20:16.662Z,102072.84
2022-08-09T12:25:36.492Z,102070.94
2022-08-09T12:30:39.606Z,102058.09
2022-08-09T12:35:42.898Z,102051.41
2022-08-09T12:40:51.928Z,102047.38
2022-08-09T12:46:00.007Z,102050.16
2022-08-09T12:51:03.938Z,102043.19
2022-08-09T12:56:43.409Z,102032.25
2022-08-09T13:01:46.851Z,102039.91
2022-08-09T13:06:51.084Z,102046.84
2022-08-09T13:12:01.673Z,102024.84
2022-08-09T13:17:05.206Z,102027.28
2022-08-09T13:22:36.905Z,102015.66
2022-08-09T13:27:54.318Z,102019.22
2022-08-09T13:32:57.976Z,102021.78
2022-08-09T13:38:00.226Z,102013.88
2022-08-09T13:43:05.256Z,102016.31
2022-08-09T13:48:11.360Z,102022.91
2022-08-09T13:53:16.675Z,102022.94
2022-08-09T13:58:18.398Z,102011.31
2022-08-09T14:04:01.388Z,102020.19
2022-08-09T14:08:43.353Z,102002.75
2022-08-09T14:14:24.563Z,102003.59
2022-08-09T14:19:07.199Z,101994.72
2022-08-09T14:24:22.153Z,102006.56
2022-08-09T14:30:35.124Z,101998.56
2022-08-09T14:34:55.675Z,101996.59
2022-08-09T14:39:58.567Z,101993.03
2022-08-09T14:46:58.196Z,101995.41
2022-08-09T14:50:23.494Z,101985.91
2022-08-09T14:55:29.194Z,102002.66
2022-08-09T15:00:36.123Z,101985.88
2022-08-09T15:05:38.490Z,101997.72
2022-08-09T15:10:41.319Z,101993.88
2022-08-09T15:15:43.747Z,101991.44
2022-08-09T15:22:00.632Z,101976.59
2022-08-09T15:26:18.559Z,101978.34
2022-08-09T15:31:41.659Z,101976.91
2022-08-09T15:36:48.101Z,101977.22
2022-08-09T15:41:50.815Z,101974.25
2022-08-09T15:46:52.587Z,101972.16
2022-08-09T15:52:03.580Z,101966.72
2022-08-09T15:57:08.564Z,101958.03
2022-08-09T16:02:13.420Z,101961.53
2022-08-09T16:07:15.269Z,101954.63
2022-08-09T16:12:17.869Z,101952.88
2022-08-09T16:17:20.252Z,101959.47
2022-08-09T16:22:24.234Z,101948.94
2022-08-09T16:27:29.812Z,101951.81
2022-08-09T16:32:53.285Z,101952.72
2022-08-09T16:37:56.882Z,101951.66
2022-08-09T16:43:02.254Z,101960.38
2022-08-09T16:48:39.725Z,101957.63
2022-08-09T16:53:33.828Z,101960.78
2022-08-09T16:58:36.889Z,101956.66
2022-08-09T17:03:38.839Z,101965.13
2022-08-09T17:09:01.835Z,101970.28
2022-08-09T17:14:05.247Z,101972.13
2022-08-09T17:19:06.966Z,101969.81
2022-08-09T17:24:27.071Z,101962.56
2022-08-09T17:29:38.084Z,101976.84
2022-08-09T17:35:07.697Z,101984.13
2022-08-09T17:40:06.040Z,101972.22
2022-08-09T17:45:37.565Z,101978.00
2022-08-09T17:50:41.132Z,101983.22
2022-08-09T17:56:03.390Z,101986.31
2022-08-09T18:01:08.483Z,101989.72
2022-08-09T18:06:14.838Z,101988.19
2022-08-09T18:12:04.835Z,101998.56
2022-08-09T18:16:56.365Z,101996.13
2022-08-09T18:21:58.100Z,102000.84
2022-08-09T18:27:03.609Z,102006.16
2022-08-09T18:32:08.978Z,102008.75
2022-08-09T18:37:48.819Z,102011.75
2022-08-09T18:42:33.290Z,102015.78
2022-08-09T18:47:37.631Z,102021.84
2022-08-09T18:52:39.763Z,102021.63
2022-08-09T18:57:45.436Z,102027.22
2022-08-09T19:02:48.762Z,102030.81
2022-08-09T19:08:04.854Z,102029.69
2022-08-09T19:13:19.994Z,102041.66
2022-08-09T19:18:33.926Z,102034.53
2022-08-09T19:24:37.174Z,102047.00
2022-08-09T19:29:15.468Z,102055.19
2022-08-09T19:34:22.950Z,102052.44
2022-08-09T19:39:43.569Z,102048.59
2022-08-09T19:44:51.470Z,102046.78
2022-08-09T19:50:09.569Z,102053.59
2022-08-09T19:55:17.098Z,102055.03
2022-08-09T20:00:21.301Z,102048.69
2022-08-09T20:05:23.893Z,102058.94
2022-08-09T20:10:33.995Z,102060.00
2022-08-09T20:16:37.772Z,102063.84
2022-08-09T20:20:58.703Z,102058.88
2022-08-09T20:26:03.719Z,102060.97
2022-08-09T20:31:09.183Z,102061.41
2022-08-09T20:36:11.231Z,102051.13
2022-08-09T20:41:12.972Z,102041.66
2022-08-09T20:46:33.264Z,102044.72
2022-08-09T20:51:41.320Z,102066.19
2022-08-09T20:56:47.064Z,102062.91
2022-08-09T21:01:51.599Z,102062.31
2022-08-09T21:06:55.610Z,102067.00
2022-08-09T21:18:21.742Z,102079.72
2022-08-09T21:22:38.532Z,102081.56
2022-08-09T21:27:51.246Z,102081.59
2022-08-09T21:32:54.927Z,102086.16
2022-08-09T21:38:00.360Z,102088.94
2022-08-09T21:43:04.169Z,102085.56
2022-08-09T21:48:07.932Z,102080.16
2022-08-09T21:53:15.741Z,102098.81
2022-08-09T21:58:31.429Z,102089.25
2022-08-09T22:03:33.154Z,102086.63
2022-08-09T22:08:38.474Z,102096.47
2022-08-09T22:13:46.018Z,102090.38
2022-08-09T22:18:54.583Z,102085.13
2022-08-09T22:24:01.516Z,102096.78
2022-08-09T22:29:07.205Z,102101.28
2022-08-09T22:34:14.783Z,102095.22
2022-08-09T22:39:47.242Z,102104.09
2022-08-09T22:44:38.676Z,102103.25
2022-08-09T22:49:47.496Z,102113.88
2022-08-09T22:54:53.945Z,102110.41
2022-08-09T22:59:59.337Z,102106.03
2022-08-09T23:05:01.253Z,102111.34
2022-08-09T23:10:07.859Z,102113.25
2022-08-09T23:15:10.023Z,102111.56
2022-08-09T23:20:11.865Z,102114.25
2022-08-09T23:25:13.574Z,102116.97
2022-08-09T23:30:15.330Z,102117.03
2022-08-09T23:35:17.056Z,102120.59
2022-08-09T23:40:18.762Z,102118.88
2022-08-09T23:45:38.283Z,102120.63
2022-08-09T23:50:40.331Z,102115.38
2022-08-09T23:55:49.196Z,102118.03
